sensor_id;sensor_type;location;lat;lon;timestamp;temperature;humidity
56044;DHT22;41912;51.022;3.664;2023-07-09T00:01:45;23.80;97.40
56044;DHT22;41912;51.022;3.664;2023-07-09T00:04:11;23.80;97.60
56044;DHT22;41912;51.022;3.664;2023-07-09T00:06:38;23.90;97.60
56044;DHT22;41912;51.022;3.664;2023-07-09T00:09:04;23.80;97.60
56044;DHT22;41912;51.022;3.664;2023-07-09T00:11:32;23.70;97.70
56044;DHT22;41912;51.022;3.664;2023-07-09T00:13:58;23.70;97.80
56044;DHT22;41912;51.022;3.664;2023-07-09T00:16:25;23.70;97.80
56044;DHT22;41912;51.022;3.664;2023-07-09T00:18:51;23.70;97.90
56044;DHT22;41912;51.022;3.664;2023-07-09T00:21:18;23.60;97.80
56044;DHT22;41912;51.022;3.664;2023-07-09T00:23:45;23.60;97.80
56044;DHT22;41912;51.022;3.664;2023-07-09T00:26:15;23.60;97.80
56044;DHT22;41912;51.022;3.664;2023-07-09T00:28:44;23.60;97.80
56044;DHT22;41912;51.022;3.664;2023-07-09T00:31:15;23.60;97.90
56044;DHT22;41912;51.022;3.664;2023-07-09T00:33:42;23.60;98.00
56044;DHT22;41912;51.022;3.664;2023-07-09T00:36:14;23.60;98.00
56044;DHT22;41912;51.022;3.664;2023-07-09T00:38:40;23.60;98.10
56044;DHT22;41912;51.022;3.664;2023-07-09T00:41:17;23.60;98.10
56044;DHT22;41912;51.022;3.664;2023-07-09T00:43:45;23.60;98.00
56044;DHT22;41912;51.022;3.664;2023-07-09T00:48:49;23.60;98.00
56044;DHT22;41912;51.022;3.664;2023-07-09T00:51:19;23.60;97.90
56044;DHT22;41912;51.022;3.664;2023-07-09T00:53:47;23.60;98.10
56044;DHT22;41912;51.022;3.664;2023-07-09T00:56:23;23.50;98.30
56044;DHT22;41912;51.022;3.664;2023-07-09T00:58:52;23.50;98.40
56044;DHT22;41912;51.022;3.664;2023-07-09T01:01:20;23.50;98.40
56044;DHT22;41912;51.022;3.664;2023-07-09T01:03:52;23.50;98.40
56044;DHT22;41912;51.022;3.664;2023-07-09T01:06:28;23.50;98.40
56044;DHT22;41912;51.022;3.664;2023-07-09T01:08:58;23.40;98.40
56044;DHT22;41912;51.022;3.664;2023-07-09T01:11:26;23.40;98.50
56044;DHT22;41912;51.022;3.664;2023-07-09T01:13:58;23.30;98.60
56044;DHT22;41912;51.022;3.664;2023-07-09T01:16:28;23.30;98.50
56044;DHT22;41912;51.022;3.664;2023-07-09T01:18:54;23.30;98.50
56044;DHT22;41912;51.022;3.664;2023-07-09T01:21:20;23.30;98.50
56044;DHT22;41912;51.022;3.664;2023-07-09T01:23:48;23.20;98.40
56044;DHT22;41912;51.022;3.664;2023-07-09T01:26:22;23.20;98.30
56044;DHT22;41912;51.022;3.664;2023-07-09T01:28:50;23.10;98.50
56044;DHT22;41912;51.022;3.664;2023-07-09T01:31:16;23.00;98.50
56044;DHT22;41912;51.022;3.664;2023-07-09T01:33:43;23.00;98.40
56044;DHT22;41912;51.022;3.664;2023-07-09T01:36:15;23.00;98.50
56044;DHT22;41912;51.022;3.664;2023-07-09T01:38:41;23.00;98.50
56044;DHT22;41912;51.022;3.664;2023-07-09T01:41:08;23.00;98.40
56044;DHT22;41912;51.022;3.664;2023-07-09T01:43:40;23.00;98.60
56044;DHT22;41912;51.022;3.664;2023-07-09T01:46:10;22.90;98.60
56044;DHT22;41912;51.022;3.664;2023-07-09T01:48:38;23.00;98.70
56044;DHT22;41912;51.022;3.664;2023-07-09T01:51:12;23.00;98.70
56044;DHT22;41912;51.022;3.664;2023-07-09T01:53:39;22.90;98.60
56044;DHT22;41912;51.022;3.664;2023-07-09T01:56:05;22.80;98.70
56044;DHT22;41912;51.022;3.664;2023-07-09T01:58:34;22.70;98.90
56044;DHT22;41912;51.022;3.664;2023-07-09T02:01:00;22.70;98.90
56044;DHT22;41912;51.022;3.664;2023-07-09T02:03:26;22.70;98.90
56044;DHT22;41912;51.022;3.664;2023-07-09T02:05:55;22.60;99.00
56044;DHT22;41912;51.022;3.664;2023-07-09T02:08:20;22.60;98.90
56044;DHT22;41912;51.022;3.664;2023-07-09T02:10:50;22.70;98.90
56044;DHT22;41912;51.022;3.664;2023-07-09T02:13:16;22.70;98.90
56044;DHT22;41912;51.022;3.664;2023-07-09T02:15:45;22.60;99.10
56044;DHT22;41912;51.022;3.664;2023-07-09T02:18:11;22.60;99.10
56044;DHT22;41912;51.022;3.664;2023-07-09T02:20:37;22.60;99.20
56044;DHT22;41912;51.022;3.664;2023-07-09T02:23:03;22.60;99.30
56044;DHT22;41912;51.022;3.664;2023-07-09T02:25:29;22.60;99.20
56044;DHT22;41912;51.022;3.664;2023-07-09T02:27:55;22.70;99.30
56044;DHT22;41912;51.022;3.664;2023-07-09T02:30:20;22.60;99.30
56044;DHT22;41912;51.022;3.664;2023-07-09T02:32:46;22.60;99.00
56044;DHT22;41912;51.022;3.664;2023-07-09T02:35:11;22.60;99.00
56044;DHT22;41912;51.022;3.664;2023-07-09T02:37:38;22.60;99.10
56044;DHT22;41912;51.022;3.664;2023-07-09T02:40:04;22.60;99.10
56044;DHT22;41912;51.022;3.664;2023-07-09T02:42:30;22.50;99.30
56044;DHT22;41912;51.022;3.664;2023-07-09T02:44:56;22.50;99.10
56044;DHT22;41912;51.022;3.664;2023-07-09T02:47:21;22.50;99.10
56044;DHT22;41912;51.022;3.664;2023-07-09T02:49:47;22.50;99.00
56044;DHT22;41912;51.022;3.664;2023-07-09T02:52:13;22.50;99.00
56044;DHT22;41912;51.022;3.664;2023-07-09T02:54:39;22.50;98.80
56044;DHT22;41912;51.022;3.664;2023-07-09T02:57:05;22.40;98.80
56044;DHT22;41912;51.022;3.664;2023-07-09T02:59:31;22.40;99.00
56044;DHT22;41912;51.022;3.664;2023-07-09T03:02:00;22.30;98.90
56044;DHT22;41912;51.022;3.664;2023-07-09T03:04:26;22.30;99.10
56044;DHT22;41912;51.022;3.664;2023-07-09T03:06:52;22.20;99.20
56044;DHT22;41912;51.022;3.664;2023-07-09T03:09:18;22.20;99.20
56044;DHT22;41912;51.022;3.664;2023-07-09T03:11:44;22.20;99.00
56044;DHT22;41912;51.022;3.664;2023-07-09T03:14:09;22.20;99.10
56044;DHT22;41912;51.022;3.664;2023-07-09T03:16:35;22.10;99.20
56044;DHT22;41912;51.022;3.664;2023-07-09T03:19:01;22.10;99.20
56044;DHT22;41912;51.022;3.664;2023-07-09T03:21:28;22.00;99.40
56044;DHT22;41912;51.022;3.664;2023-07-09T03:23:55;22.00;99.40
56044;DHT22;41912;51.022;3.664;2023-07-09T03:26:21;21.90;99.40
56044;DHT22;41912;51.022;3.664;2023-07-09T03:28:47;21.90;99.50
56044;DHT22;41912;51.022;3.664;2023-07-09T03:31:12;21.80;99.40
56044;DHT22;41912;51.022;3.664;2023-07-09T03:33:38;21.80;99.70
56044;DHT22;41912;51.022;3.664;2023-07-09T03:36:04;21.70;99.70
56044;DHT22;41912;51.022;3.664;2023-07-09T03:38:31;21.70;99.90
56044;DHT22;41912;51.022;3.664;2023-07-09T03:40:57;21.70;99.90
56044;DHT22;41912;51.022;3.664;2023-07-09T03:43:23;21.70;99.90
56044;DHT22;41912;51.022;3.664;2023-07-09T03:45:50;21.60;99.90
56044;DHT22;41912;51.022;3.664;2023-07-09T03:48:17;21.70;99.90
56044;DHT22;41912;51.022;3.664;2023-07-09T03:50:45;21.60;99.90
56044;DHT22;41912;51.022;3.664;2023-07-09T03:53:11;21.60;99.90
56044;DHT22;41912;51.022;3.664;2023-07-09T03:55:37;21.60;99.90
56044;DHT22;41912;51.022;3.664;2023-07-09T03:58:03;21.60;99.90
56044;DHT22;41912;51.022;3.664;2023-07-09T04:00:29;21.60;99.90
56044;DHT22;41912;51.022;3.664;2023-07-09T04:02:56;21.60;99.90
56044;DHT22;41912;51.022;3.664;2023-07-09T04:05:24;21.50;99.90
56044;DHT22;41912;51.022;3.664;2023-07-09T04:07:50;21.50;99.90
56044;DHT22;41912;51.022;3.664;2023-07-09T04:10:16;21.50;99.90
56044;DHT22;41912;51.022;3.664;2023-07-09T04:12:42;21.50;99.90
56044;DHT22;41912;51.022;3.664;2023-07-09T04:15:08;21.50;99.90
56044;DHT22;41912;51.022;3.664;2023-07-09T04:17:35;21.40;99.90
56044;DHT22;41912;51.022;3.664;2023-07-09T04:20:01;21.40;99.90
56044;DHT22;41912;51.022;3.664;2023-07-09T04:22:31;21.40;99.90
56044;DHT22;41912;51.022;3.664;2023-07-09T04:24:57;21.40;99.90
56044;DHT22;41912;51.022;3.664;2023-07-09T04:27:23;21.50;99.90
56044;DHT22;41912;51.022;3.664;2023-07-09T04:29:53;21.50;99.90
56044;DHT22;41912;51.022;3.664;2023-07-09T04:32:20;21.50;99.90
56044;DHT22;41912;51.022;3.664;2023-07-09T04:34:46;21.40;99.90
56044;DHT22;41912;51.022;3.664;2023-07-09T04:37:12;21.40;99.90
56044;DHT22;41912;51.022;3.664;2023-07-09T04:39:42;21.50;99.90
56044;DHT22;41912;51.022;3.664;2023-07-09T04:42:17;21.50;99.90
56044;DHT22;41912;51.022;3.664;2023-07-09T04:44:44;21.50;99.90
56044;DHT22;41912;51.022;3.664;2023-07-09T04:47:10;21.60;99.90
56044;DHT22;41912;51.022;3.664;2023-07-09T04:49:38;21.60;99.90
56044;DHT22;41912;51.022;3.664;2023-07-09T04:52:04;21.60;99.90
56044;DHT22;41912;51.022;3.664;2023-07-09T04:54:30;21.60;99.90
56044;DHT22;41912;51.022;3.664;2023-07-09T04:56:56;21.60;99.90
56044;DHT22;41912;51.022;3.664;2023-07-09T04:59:22;21.60;99.90
56044;DHT22;41912;51.022;3.664;2023-07-09T05:01:48;21.60;99.90
56044;DHT22;41912;51.022;3.664;2023-07-09T05:04:14;21.50;99.90
56044;DHT22;41912;51.022;3.664;2023-07-09T05:06:39;21.60;99.90
56044;DHT22;41912;51.022;3.664;2023-07-09T05:09:05;21.60;99.90
56044;DHT22;41912;51.022;3.664;2023-07-09T05:11:35;21.60;99.90
56044;DHT22;41912;51.022;3.664;2023-07-09T05:14:01;21.70;99.90
56044;DHT22;41912;51.022;3.664;2023-07-09T05:16:27;21.70;99.90
56044;DHT22;41912;51.022;3.664;2023-07-09T05:18:53;21.70;99.90
56044;DHT22;41912;51.022;3.664;2023-07-09T05:21:19;21.80;99.90
56044;DHT22;41912;51.022;3.664;2023-07-09T05:23:44;21.80;99.90
56044;DHT22;41912;51.022;3.664;2023-07-09T05:26:11;21.80;99.90
56044;DHT22;41912;51.022;3.664;2023-07-09T05:28:36;21.90;99.90
56044;DHT22;41912;51.022;3.664;2023-07-09T05:31:04;21.90;99.90
56044;DHT22;41912;51.022;3.664;2023-07-09T05:33:30;22.00;99.90
56044;DHT22;41912;51.022;3.664;2023-07-09T05:35:55;22.00;99.90
56044;DHT22;41912;51.022;3.664;2023-07-09T05:38:21;22.00;99.90
56044;DHT22;41912;51.022;3.664;2023-07-09T05:40:47;22.10;99.90
56044;DHT22;41912;51.022;3.664;2023-07-09T05:43:14;22.10;99.90
56044;DHT22;41912;51.022;3.664;2023-07-09T05:45:40;22.20;99.90
56044;DHT22;41912;51.022;3.664;2023-07-09T05:48:06;22.20;99.90
56044;DHT22;41912;51.022;3.664;2023-07-09T05:50:34;22.30;99.90
56044;DHT22;41912;51.022;3.664;2023-07-09T05:53:00;22.40;99.90
56044;DHT22;41912;51.022;3.664;2023-07-09T05:55:26;22.40;99.90
56044;DHT22;41912;51.022;3.664;2023-07-09T05:57:53;22.40;99.90
56044;DHT22;41912;51.022;3.664;2023-07-09T06:00:18;22.50;99.90
56044;DHT22;41912;51.022;3.664;2023-07-09T06:02:44;22.50;99.90
56044;DHT22;41912;51.022;3.664;2023-07-09T06:05:10;22.60;99.90
56044;DHT22;41912;51.022;3.664;2023-07-09T06:07:37;22.60;99.90
56044;DHT22;41912;51.022;3.664;2023-07-09T06:10:04;22.70;99.90
56044;DHT22;41912;51.022;3.664;2023-07-09T06:12:31;22.70;99.90
56044;DHT22;41912;51.022;3.664;2023-07-09T06:14:56;22.80;99.90
56044;DHT22;41912;51.022;3.664;2023-07-09T06:17:22;22.80;99.90
56044;DHT22;41912;51.022;3.664;2023-07-09T06:19:47;22.80;99.90
56044;DHT22;41912;51.022;3.664;2023-07-09T06:22:13;22.80;99.90
56044;DHT22;41912;51.022;3.664;2023-07-09T06:24:39;22.90;99.90
56044;DHT22;41912;51.022;3.664;2023-07-09T06:27:04;22.90;99.90
56044;DHT22;41912;51.022;3.664;2023-07-09T06:29:30;22.90;99.90
56044;DHT22;41912;51.022;3.664;2023-07-09T06:31:56;22.90;99.90
56044;DHT22;41912;51.022;3.664;2023-07-09T06:34:21;22.90;99.90
56044;DHT22;41912;51.022;3.664;2023-07-09T06:36:47;22.90;99.90
56044;DHT22;41912;51.022;3.664;2023-07-09T06:39:13;23.00;99.90
56044;DHT22;41912;51.022;3.664;2023-07-09T06:41:38;23.00;99.90
56044;DHT22;41912;51.022;3.664;2023-07-09T06:44:08;23.10;99.90
56044;DHT22;41912;51.022;3.664;2023-07-09T06:46:34;23.20;99.90
56044;DHT22;41912;51.022;3.664;2023-07-09T06:49:01;23.30;99.90
56044;DHT22;41912;51.022;3.664;2023-07-09T06:51:26;23.40;99.90
56044;DHT22;41912;51.022;3.664;2023-07-09T06:53:52;23.40;99.90
56044;DHT22;41912;51.022;3.664;2023-07-09T06:56:18;23.50;99.90
56044;DHT22;41912;51.022;3.664;2023-07-09T06:58:43;23.50;99.90
56044;DHT22;41912;51.022;3.664;2023-07-09T07:01:11;23.50;99.90
56044;DHT22;41912;51.022;3.664;2023-07-09T07:03:38;23.50;99.90
56044;DHT22;41912;51.022;3.664;2023-07-09T07:06:04;23.60;99.90
56044;DHT22;41912;51.022;3.664;2023-07-09T07:08:31;23.60;99.90
56044;DHT22;41912;51.022;3.664;2023-07-09T07:10:59;23.60;99.90
56044;DHT22;41912;51.022;3.664;2023-07-09T07:13:38;23.60;99.90
56044;DHT22;41912;51.022;3.664;2023-07-09T07:16:13;23.70;99.90
56044;DHT22;41912;51.022;3.664;2023-07-09T07:18:39;23.70;99.90
56044;DHT22;41912;51.022;3.664;2023-07-09T07:21:05;23.70;99.80
56044;DHT22;41912;51.022;3.664;2023-07-09T07:23:31;23.80;99.80
56044;DHT22;41912;51.022;3.664;2023-07-09T07:25:57;23.80;99.90
56044;DHT22;41912;51.022;3.664;2023-07-09T07:28:23;23.90;99.90
56044;DHT22;41912;51.022;3.664;2023-07-09T07:31:03;23.80;99.70
56044;DHT22;41912;51.022;3.664;2023-07-09T07:33:29;23.90;99.50
56044;DHT22;41912;51.022;3.664;2023-07-09T07:35:55;23.90;99.70
56044;DHT22;41912;51.022;3.664;2023-07-09T07:38:21;24.00;99.70
56044;DHT22;41912;51.022;3.664;2023-07-09T07:40:46;24.00;99.70
56044;DHT22;41912;51.022;3.664;2023-07-09T07:43:12;24.00;99.90
56044;DHT22;41912;51.022;3.664;2023-07-09T07:45:42;24.00;99.90
56044;DHT22;41912;51.022;3.664;2023-07-09T07:48:08;24.10;99.90
56044;DHT22;41912;51.022;3.664;2023-07-09T07:50:34;24.20;99.90
56044;DHT22;41912;51.022;3.664;2023-07-09T07:53:00;24.30;99.40
56044;DHT22;41912;51.022;3.664;2023-07-09T07:55:25;24.30;99.40
56044;DHT22;41912;51.022;3.664;2023-07-09T07:57:51;24.40;99.20
56044;DHT22;41912;51.022;3.664;2023-07-09T08:00:17;24.40;99.30
56044;DHT22;41912;51.022;3.664;2023-07-09T08:02:42;24.50;99.00
56044;DHT22;41912;51.022;3.664;2023-07-09T08:05:08;24.60;98.80
56044;DHT22;41912;51.022;3.664;2023-07-09T08:07:34;24.70;98.70
56044;DHT22;41912;51.022;3.664;2023-07-09T08:09:59;24.70;98.30
56044;DHT22;41912;51.022;3.664;2023-07-09T08:12:25;24.80;99.30
56044;DHT22;41912;51.022;3.664;2023-07-09T08:14:50;24.80;98.80
56044;DHT22;41912;51.022;3.664;2023-07-09T08:17:16;24.90;98.30
56044;DHT22;41912;51.022;3.664;2023-07-09T08:19:45;25.00;98.30
56044;DHT22;41912;51.022;3.664;2023-07-09T08:22:12;25.00;97.30
56044;DHT22;41912;51.022;3.664;2023-07-09T08:24:37;25.00;97.50
56044;DHT22;41912;51.022;3.664;2023-07-09T08:27:05;25.10;97.50
56044;DHT22;41912;51.022;3.664;2023-07-09T08:29:31;25.20;97.20
56044;DHT22;41912;51.022;3.664;2023-07-09T08:31:56;25.20;97.20
56044;DHT22;41912;51.022;3.664;2023-07-09T08:34:22;25.30;97.20
56044;DHT22;41912;51.022;3.664;2023-07-09T08:36:47;25.50;97.10
56044;DHT22;41912;51.022;3.664;2023-07-09T08:39:13;25.50;97.10
56044;DHT22;41912;51.022;3.664;2023-07-09T08:41:45;25.50;96.40
56044;DHT22;41912;51.022;3.664;2023-07-09T08:44:41;25.60;96.50
56044;DHT22;41912;51.022;3.664;2023-07-09T08:49:47;25.80;96.50
56044;DHT22;41912;51.022;3.664;2023-07-09T08:54:58;25.80;95.60
56044;DHT22;41912;51.022;3.664;2023-07-09T08:57:27;25.90;95.60
56044;DHT22;41912;51.022;3.664;2023-07-09T08:59:59;26.00;95.10
56044;DHT22;41912;51.022;3.664;2023-07-09T09:02:33;26.00;95.60
56044;DHT22;41912;51.022;3.664;2023-07-09T09:05:03;26.00;95.50
56044;DHT22;41912;51.022;3.664;2023-07-09T09:10:13;26.10;94.80
56044;DHT22;41912;51.022;3.664;2023-07-09T09:15:17;26.30;95.50
56044;DHT22;41912;51.022;3.664;2023-07-09T09:17:44;26.40;95.40
56044;DHT22;41912;51.022;3.664;2023-07-09T09:20:20;26.40;95.20
56044;DHT22;41912;51.022;3.664;2023-07-09T09:22:57;26.40;94.20
56044;DHT22;41912;51.022;3.664;2023-07-09T09:25:30;26.50;95.20
56044;DHT22;41912;51.022;3.664;2023-07-09T09:27:56;26.50;95.20
56044;DHT22;41912;51.022;3.664;2023-07-09T09:30:24;26.60;94.40
56044;DHT22;41912;51.022;3.664;2023-07-09T09:32:56;26.70;94.10
56044;DHT22;41912;51.022;3.664;2023-07-09T09:37:57;26.70;94.60
56044;DHT22;41912;51.022;3.664;2023-07-09T09:40:25;26.70;94.40
56044;DHT22;41912;51.022;3.664;2023-07-09T09:42:52;26.80;94.40
56044;DHT22;41912;51.022;3.664;2023-07-09T09:45:21;26.80;94.30
56044;DHT22;41912;51.022;3.664;2023-07-09T09:47:47;26.80;94.50
56044;DHT22;41912;51.022;3.664;2023-07-09T09:50:19;26.80;93.70
56044;DHT22;41912;51.022;3.664;2023-07-09T09:52:46;26.90;94.40
56044;DHT22;41912;51.022;3.664;2023-07-09T09:55:27;26.90;94.70
56044;DHT22;41912;51.022;3.664;2023-07-09T09:57:54;26.90;95.00
56044;DHT22;41912;51.022;3.664;2023-07-09T10:00:26;26.90;94.40
56044;DHT22;41912;51.022;3.664;2023-07-09T10:03:00;26.90;94.60
56044;DHT22;41912;51.022;3.664;2023-07-09T10:05:33;26.80;94.20
56044;DHT22;41912;51.022;3.664;2023-07-09T10:08:07;26.80;94.90
56044;DHT22;41912;51.022;3.664;2023-07-09T10:10:34;26.80;95.80
56044;DHT22;41912;51.022;3.664;2023-07-09T10:13:27;26.70;95.90
56044;DHT22;41912;51.022;3.664;2023-07-09T10:18:33;26.60;96.50
56044;DHT22;41912;51.022;3.664;2023-07-09T10:21:14;26.60;96.80
56044;DHT22;41912;51.022;3.664;2023-07-09T10:26:35;26.50;97.30
56044;DHT22;41912;51.022;3.664;2023-07-09T10:41:59;26.40;96.60
56044;DHT22;41912;51.022;3.664;2023-07-09T10:44:32;26.30;96.30
56044;DHT22;41912;51.022;3.664;2023-07-09T10:47:04;26.30;96.40
56044;DHT22;41912;51.022;3.664;2023-07-09T10:49:34;26.30;95.60
56044;DHT22;41912;51.022;3.664;2023-07-09T10:52:22;26.30;95.60
56044;DHT22;41912;51.022;3.664;2023-07-09T11:00:20;26.30;95.90
56044;DHT22;41912;51.022;3.664;2023-07-09T11:02:49;26.50;95.70
56044;DHT22;41912;51.022;3.664;2023-07-09T11:05:16;26.60;95.40
56044;DHT22;41912;51.022;3.664;2023-07-09T11:07:58;26.70;95.70
56044;DHT22;41912;51.022;3.664;2023-07-09T11:10:29;26.60;94.80
56044;DHT22;41912;51.022;3.664;2023-07-09T11:13:13;26.70;94.90
56044;DHT22;41912;51.022;3.664;2023-07-09T11:15:43;26.80;95.20
56044;DHT22;41912;51.022;3.664;2023-07-09T11:18:32;26.70;95.20
56044;DHT22;41912;51.022;3.664;2023-07-09T11:21:14;26.90;95.80
56044;DHT22;41912;51.022;3.664;2023-07-09T11:23:49;26.90;95.60
56044;DHT22;41912;51.022;3.664;2023-07-09T11:26:35;26.90;95.80
56044;DHT22;41912;51.022;3.664;2023-07-09T11:31:39;26.90;96.10
56044;DHT22;41912;51.022;3.664;2023-07-09T11:37:11;27.00;95.80
56044;DHT22;41912;51.022;3.664;2023-07-09T11:42:02;26.80;95.30
56044;DHT22;41912;51.022;3.664;2023-07-09T11:44:32;26.70;95.30
56044;DHT22;41912;51.022;3.664;2023-07-09T11:50:01;26.60;95.40
56044;DHT22;41912;51.022;3.664;2023-07-09T11:52:39;26.50;95.30
56044;DHT22;41912;51.022;3.664;2023-07-09T11:57:47;26.40;95.30
56044;DHT22;41912;51.022;3.664;2023-07-09T12:00:14;26.40;95.30
56044;DHT22;41912;51.022;3.664;2023-07-09T12:02:40;26.30;95.40
56044;DHT22;41912;51.022;3.664;2023-07-09T12:05:06;26.40;95.70
56044;DHT22;41912;51.022;3.664;2023-07-09T12:07:32;26.40;95.60
56044;DHT22;41912;51.022;3.664;2023-07-09T12:10:03;26.30;96.20
56044;DHT22;41912;51.022;3.664;2023-07-09T12:12:29;26.20;95.80
56044;DHT22;41912;51.022;3.664;2023-07-09T12:14:55;26.20;96.20
56044;DHT22;41912;51.022;3.664;2023-07-09T12:17:26;26.20;96.50
56044;DHT22;41912;51.022;3.664;2023-07-09T12:19:52;26.30;96.40
56044;DHT22;41912;51.022;3.664;2023-07-09T12:22:21;26.10;95.80
56044;DHT22;41912;51.022;3.664;2023-07-09T12:24:49;26.00;95.90
56044;DHT22;41912;51.022;3.664;2023-07-09T12:27:26;26.00;96.00
56044;DHT22;41912;51.022;3.664;2023-07-09T12:29:55;26.00;95.80
56044;DHT22;41912;51.022;3.664;2023-07-09T12:32:21;26.00;95.80
56044;DHT22;41912;51.022;3.664;2023-07-09T12:34:53;25.90;95.80
56044;DHT22;41912;51.022;3.664;2023-07-09T12:37:20;25.90;95.80
56044;DHT22;41912;51.022;3.664;2023-07-09T12:39:49;25.90;96.00
56044;DHT22;41912;51.022;3.664;2023-07-09T12:42:19;25.90;96.20
56044;DHT22;41912;51.022;3.664;2023-07-09T12:44:46;25.90;96.80
56044;DHT22;41912;51.022;3.664;2023-07-09T12:47:14;25.90;96.70
56044;DHT22;41912;51.022;3.664;2023-07-09T12:49:43;25.80;96.80
56044;DHT22;41912;51.022;3.664;2023-07-09T12:52:16;25.80;96.90
56044;DHT22;41912;51.022;3.664;2023-07-09T12:57:24;25.80;98.10
56044;DHT22;41912;51.022;3.664;2023-07-09T12:59:50;25.80;98.20
56044;DHT22;41912;51.022;3.664;2023-07-09T13:02:22;25.70;98.60
56044;DHT22;41912;51.022;3.664;2023-07-09T13:04:48;25.80;99.10
56044;DHT22;41912;51.022;3.664;2023-07-09T13:09:52;25.70;99.90
56044;DHT22;41912;51.022;3.664;2023-07-09T13:12:19;25.60;99.90
56044;DHT22;41912;51.022;3.664;2023-07-09T13:14:53;25.60;99.90
56044;DHT22;41912;51.022;3.664;2023-07-09T13:17:19;25.50;99.90
56044;DHT22;41912;51.022;3.664;2023-07-09T13:19:45;25.40;99.90
56044;DHT22;41912;51.022;3.664;2023-07-09T13:22:16;25.30;99.90
56044;DHT22;41912;51.022;3.664;2023-07-09T13:24:44;25.30;99.90
56044;DHT22;41912;51.022;3.664;2023-07-09T13:27:13;25.20;99.90
56044;DHT22;41912;51.022;3.664;2023-07-09T13:29:39;25.20;99.90
56044;DHT22;41912;51.022;3.664;2023-07-09T13:32:10;25.20;99.90
56044;DHT22;41912;51.022;3.664;2023-07-09T13:34:36;25.20;99.90
56044;DHT22;41912;51.022;3.664;2023-07-09T13:37:02;25.10;99.90
56044;DHT22;41912;51.022;3.664;2023-07-09T13:39:28;25.10;99.90
56044;DHT22;41912;51.022;3.664;2023-07-09T13:41:55;25.00;99.90
56044;DHT22;41912;51.022;3.664;2023-07-09T13:44:24;25.00;99.90
56044;DHT22;41912;51.022;3.664;2023-07-09T13:46:53;25.00;99.80
56044;DHT22;41912;51.022;3.664;2023-07-09T13:49:20;24.90;99.90
56044;DHT22;41912;51.022;3.664;2023-07-09T13:51:48;24.90;99.90
56044;DHT22;41912;51.022;3.664;2023-07-09T13:54:16;24.80;99.90
56044;DHT22;41912;51.022;3.664;2023-07-09T13:56:42;24.70;99.90
56044;DHT22;41912;51.022;3.664;2023-07-09T13:59:16;24.70;99.90
56044;DHT22;41912;51.022;3.664;2023-07-09T14:01:43;24.70;99.90
56044;DHT22;41912;51.022;3.664;2023-07-09T14:04:11;24.70;99.60
56044;DHT22;41912;51.022;3.664;2023-07-09T14:06:37;24.60;99.30
56044;DHT22;41912;51.022;3.664;2023-07-09T14:09:02;24.60;99.70
56044;DHT22;41912;51.022;3.664;2023-07-09T14:11:28;24.60;99.50
56044;DHT22;41912;51.022;3.664;2023-07-09T14:13:55;24.60;99.20
56044;DHT22;41912;51.022;3.664;2023-07-09T14:16:21;24.60;99.60
56044;DHT22;41912;51.022;3.664;2023-07-09T14:18:47;24.80;99.10
56044;DHT22;41912;51.022;3.664;2023-07-09T14:21:16;24.80;99.20
56044;DHT22;41912;51.022;3.664;2023-07-09T14:23:42;24.80;98.20
56044;DHT22;41912;51.022;3.664;2023-07-09T14:26:09;25.00;98.50
56044;DHT22;41912;51.022;3.664;2023-07-09T14:28:35;24.90;98.50
56044;DHT22;41912;51.022;3.664;2023-07-09T14:31:04;24.90;98.80
56044;DHT22;41912;51.022;3.664;2023-07-09T14:33:39;25.00;98.20
56044;DHT22;41912;51.022;3.664;2023-07-09T14:36:04;25.10;98.20
56044;DHT22;41912;51.022;3.664;2023-07-09T14:38:30;25.20;98.10
56044;DHT22;41912;51.022;3.664;2023-07-09T14:40:58;25.20;98.10
56044;DHT22;41912;51.022;3.664;2023-07-09T14:43:25;25.10;98.30
56044;DHT22;41912;51.022;3.664;2023-07-09T14:45:50;25.20;97.90
56044;DHT22;41912;51.022;3.664;2023-07-09T14:48:20;25.20;97.30
56044;DHT22;41912;51.022;3.664;2023-07-09T14:50:47;25.30;97.70
56044;DHT22;41912;51.022;3.664;2023-07-09T14:53:22;25.40;96.90
56044;DHT22;41912;51.022;3.664;2023-07-09T14:55:49;25.40;97.10
56044;DHT22;41912;51.022;3.664;2023-07-09T14:58:17;25.40;96.70
56044;DHT22;41912;51.022;3.664;2023-07-09T15:00:43;25.40;97.50
56044;DHT22;41912;51.022;3.664;2023-07-09T15:03:22;25.40;97.10
56044;DHT22;41912;51.022;3.664;2023-07-09T15:05:48;25.40;96.80
56044;DHT22;41912;51.022;3.664;2023-07-09T15:08:17;25.50;96.80
56044;DHT22;41912;51.022;3.664;2023-07-09T15:10:44;25.40;96.10
56044;DHT22;41912;51.022;3.664;2023-07-09T15:13:32;25.40;96.30
56044;DHT22;41912;51.022;3.664;2023-07-09T15:15:59;25.50;95.40
56044;DHT22;41912;51.022;3.664;2023-07-09T15:18:25;25.50;95.50
56044;DHT22;41912;51.022;3.664;2023-07-09T15:20:56;25.50;96.20
56044;DHT22;41912;51.022;3.664;2023-07-09T15:23:22;25.70;95.40
56044;DHT22;41912;51.022;3.664;2023-07-09T15:25:49;25.70;94.80
56044;DHT22;41912;51.022;3.664;2023-07-09T15:28:15;25.80;94.50
56044;DHT22;41912;51.022;3.664;2023-07-09T15:30:41;25.80;94.30
56044;DHT22;41912;51.022;3.664;2023-07-09T15:33:16;25.80;94.10
56044;DHT22;41912;51.022;3.664;2023-07-09T15:35:43;25.70;93.80
56044;DHT22;41912;51.022;3.664;2023-07-09T15:38:26;25.80;93.70
56044;DHT22;41912;51.022;3.664;2023-07-09T15:40:53;25.80;93.50
56044;DHT22;41912;51.022;3.664;2023-07-09T15:43:19;25.80;93.50
56044;DHT22;41912;51.022;3.664;2023-07-09T15:45:48;25.80;93.40
56044;DHT22;41912;51.022;3.664;2023-07-09T15:50:49;26.00;92.90
56044;DHT22;41912;51.022;3.664;2023-07-09T15:53:15;26.00;92.40
56044;DHT22;41912;51.022;3.664;2023-07-09T15:55:40;26.00;92.30
56044;DHT22;41912;51.022;3.664;2023-07-09T15:58:11;26.10;92.60
56044;DHT22;41912;51.022;3.664;2023-07-09T16:00:41;26.20;92.40
56044;DHT22;41912;51.022;3.664;2023-07-09T16:03:09;26.20;92.10
56044;DHT22;41912;51.022;3.664;2023-07-09T16:05:34;26.10;91.90
56044;DHT22;41912;51.022;3.664;2023-07-09T16:08:03;26.10;91.80
56044;DHT22;41912;51.022;3.664;2023-07-09T16:10:28;26.00;91.20
56044;DHT22;41912;51.022;3.664;2023-07-09T16:12:56;26.00;91.60
56044;DHT22;41912;51.022;3.664;2023-07-09T16:15:22;26.10;92.10
56044;DHT22;41912;51.022;3.664;2023-07-09T16:17:52;26.10;91.50
56044;DHT22;41912;51.022;3.664;2023-07-09T16:20:28;26.20;90.90
56044;DHT22;41912;51.022;3.664;2023-07-09T16:22:56;26.20;91.30
56044;DHT22;41912;51.022;3.664;2023-07-09T16:25:33;26.30;90.80
56044;DHT22;41912;51.022;3.664;2023-07-09T16:28:00;26.30;90.50
56044;DHT22;41912;51.022;3.664;2023-07-09T16:30:27;26.30;90.70
56044;DHT22;41912;51.022;3.664;2023-07-09T16:32:57;26.30;90.80
56044;DHT22;41912;51.022;3.664;2023-07-09T16:35:26;26.30;90.50
56044;DHT22;41912;51.022;3.664;2023-07-09T16:37:53;26.30;89.60